createdAt,value
2018-05-27T00:01:09.074Z,23.70
2018-05-27T00:03:36.638Z,23.17
2018-05-27T00:06:04.173Z,20.00
2018-05-27T00:08:32.499Z,12.50
2018-05-27T00:11:00.633Z,10.83
2018-05-27T00:13:28.208Z,10.60
2018-05-27T00:15:55.750Z,14.70
2018-05-27T00:18:24.077Z,11.93
2018-05-27T00:20:51.620Z,12.00
2018-05-27T00:23:19.181Z,13.07
2018-05-27T00:25:46.721Z,11.30
2018-05-27T00:28:14.286Z,11.70
2018-05-27T00:30:41.835Z,14.07
2018-05-27T00:33:09.407Z,16.00
2018-05-27T00:35:36.965Z,14.37
2018-05-27T00:38:04.534Z,12.67
2018-05-27T00:40:32.074Z,10.63
2018-05-27T00:42:59.635Z,11.90
2018-05-27T00:45:27.185Z,10.43
2018-05-27T00:47:55.510Z,15.43
2018-05-27T00:50:23.060Z,21.97
2018-05-27T00:52:50.617Z,26.77
2018-05-27T00:55:18.169Z,19.20
2018-05-27T00:57:45.707Z,17.70
2018-05-27T01:00:13.269Z,11.00
2018-05-27T01:02:40.815Z,10.93
2018-05-27T01:05:09.150Z,9.90
2018-05-27T01:07:36.697Z,9.90
2018-05-27T01:10:04.267Z,10.60
2018-05-27T01:12:31.807Z,10.23
2018-05-27T01:14:59.378Z,10.80
2018-05-27T01:17:26.917Z,11.17
2018-05-27T01:19:54.494Z,11.30
2018-05-27T01:22:22.037Z,19.17
2018-05-27T01:24:49.606Z,15.90
2018-05-27T01:27:17.152Z,22.27
2018-05-27T01:29:44.724Z,28.57
2018-05-27T01:32:12.262Z,28.03
2018-05-27T01:34:40.586Z,19.30
2018-05-27T01:37:08.124Z,13.97
2018-05-27T01:39:35.690Z,17.27
2018-05-27T01:42:03.233Z,16.53
2018-05-27T01:44:30.805Z,16.83
2018-05-27T01:46:58.346Z,16.23
2018-05-27T01:49:25.923Z,14.13
2018-05-27T01:51:53.458Z,11.70
2018-05-27T01:54:21.787Z,11.50
2018-05-27T01:56:49.322Z,10.60
2018-05-27T01:59:16.892Z,10.10
2018-05-27T02:01:44.443Z,9.70
2018-05-27T02:04:12.003Z,10.67
2018-05-27T02:06:39.538Z,11.00
2018-05-27T02:09:07.866Z,10.73
2018-05-27T02:11:35.495Z,10.20
2018-05-27T02:14:03.063Z,10.90
2018-05-27T02:16:30.607Z,10.90
2018-05-27T02:18:58.168Z,11.13
2018-05-27T02:21:25.717Z,11.50
2018-05-27T02:23:54.047Z,14.83
2018-05-27T02:26:21.666Z,14.87
2018-05-27T02:28:49.228Z,18.00
2018-05-27T02:31:17.137Z,14.87
2018-05-27T02:33:44.690Z,13.37
2018-05-27T02:36:12.222Z,14.03
2018-05-27T02:38:39.791Z,11.40
2018-05-27T02:41:07.332Z,10.63
2018-05-27T02:43:35.654Z,10.10
2018-05-27T02:46:03.202Z,10.57
2018-05-27T02:48:30.763Z,10.03
2018-05-27T02:50:58.302Z,11.30
2018-05-27T02:53:25.868Z,10.80
2018-05-27T02:55:53.405Z,17.37
2018-05-27T02:58:21.716Z,16.80
2018-05-27T03:00:49.286Z,17.00
2018-05-27T03:03:16.826Z,12.13
2018-05-27T03:05:44.390Z,12.50
2018-05-27T03:08:11.936Z,11.97
2018-05-27T03:10:39.504Z,12.00
2018-05-27T03:13:07.045Z,11.13
2018-05-27T03:15:35.371Z,9.77
2018-05-27T03:18:02.917Z,9.77
2018-05-27T03:20:30.479Z,9.60
2018-05-27T03:22:58.022Z,10.10
2018-05-27T03:25:25.587Z,9.37
2018-05-27T03:27:53.126Z,9.93
2018-05-27T03:30:20.710Z,10.40
2018-05-27T03:32:48.253Z,9.37
2018-05-27T03:35:15.813Z,9.97
2018-05-27T03:37:43.367Z,10.23
2018-05-27T03:40:10.928Z,13.10
2018-05-27T03:42:38.466Z,15.53
2018-05-27T03:45:06.795Z,14.27
2018-05-27T03:47:34.344Z,13.70
2018-05-27T03:50:01.908Z,12.23
2018-05-27T03:52:29.451Z,11.40
2018-05-27T03:54:57.009Z,12.53
2018-05-27T03:57:24.541Z,14.47
2018-05-27T03:59:52.876Z,13.10
2018-05-27T04:02:20.441Z,13.50
2018-05-27T04:05:00.026Z,13.10
2018-05-27T04:07:40.159Z,13.30
2018-05-27T04:10:07.718Z,12.60
2018-05-27T04:12:35.262Z,14.70
2018-05-27T04:15:02.835Z,24.37
2018-05-27T04:17:30.379Z,33.23
2018-05-27T04:19:57.943Z,22.53
2018-05-27T04:22:25.483Z,21.47
2018-05-27T04:24:53.045Z,13.40
2018-05-27T04:27:20.595Z,12.60
2018-05-27T04:29:48.129Z,13.90
2018-05-27T04:32:16.463Z,14.03
2018-05-27T04:34:44.018Z,10.13
2018-05-27T04:37:11.585Z,10.33
2018-05-27T04:39:39.133Z,11.63
2018-05-27T04:42:06.698Z,12.60
2018-05-27T04:44:34.242Z,11.23
2018-05-27T04:47:01.801Z,11.33
2018-05-27T04:49:29.345Z,11.23
2018-05-27T04:51:56.905Z,10.90
2018-05-27T04:54:25.139Z,11.00
2018-05-27T04:56:52.709Z,10.70
2018-05-27T04:59:21.266Z,10.97
2018-05-27T05:01:48.821Z,10.70
2018-05-27T05:04:16.360Z,11.90
2018-05-27T05:06:43.919Z,10.70
2018-05-27T05:09:11.458Z,10.60
2018-05-27T05:11:39.035Z,10.40
2018-05-27T05:14:06.578Z,10.93
2018-05-27T05:16:34.211Z,11.07
2018-05-27T05:19:01.755Z,10.80
2018-05-27T05:21:29.313Z,10.57
2018-05-27T05:23:56.849Z,10.70
2018-05-27T05:26:24.413Z,10.80
2018-05-27T05:28:51.947Z,11.00
2018-05-27T05:31:19.508Z,9.40
2018-05-27T05:33:47.948Z,9.70
2018-05-27T05:36:15.533Z,9.27
2018-05-27T05:38:43.845Z,8.87
2018-05-27T05:41:11.422Z,9.53
2018-05-27T05:43:38.968Z,8.67
2018-05-27T05:46:06.532Z,9.30
2018-05-27T05:48:34.076Z,9.20
2018-05-27T05:51:01.636Z,9.07
2018-05-27T05:53:29.184Z,8.43
2018-05-27T05:55:56.750Z,8.07
2018-05-27T05:58:24.286Z,9.30
2018-05-27T06:00:52.614Z,8.53
2018-05-27T06:03:20.159Z,8.80
2018-05-27T06:05:47.729Z,8.13
2018-05-27T06:08:15.270Z,9.97
2018-05-27T06:10:42.838Z,7.83
2018-05-27T06:13:10.381Z,8.50
2018-05-27T06:15:37.946Z,8.37
2018-05-27T06:18:05.495Z,8.73
2018-05-27T06:20:33.058Z,9.00
2018-05-27T06:23:00.598Z,15.97
2018-05-27T06:25:28.946Z,9.20
2018-05-27T06:27:56.491Z,9.27
2018-05-27T06:30:24.033Z,8.90
2018-05-27T06:32:51.595Z,8.60
2018-05-27T06:35:19.139Z,8.67
2018-05-27T06:37:47.467Z,8.97
2018-05-27T06:40:15.032Z,10.00
2018-05-27T06:42:42.610Z,10.67
2018-05-27T06:45:10.924Z,10.57
2018-05-27T06:47:38.494Z,10.03
2018-05-27T06:50:06.037Z,11.40
2018-05-27T06:52:33.602Z,10.10
2018-05-27T06:55:01.153Z,12.60
2018-05-27T06:57:28.719Z,12.80
2018-05-27T06:59:56.261Z,13.30
2018-05-27T07:02:24.599Z,13.40
2018-05-27T07:04:52.207Z,12.73
2018-05-27T07:07:19.730Z,14.13
2018-05-27T07:09:47.261Z,14.43
2018-05-27T07:12:16.196Z,13.67
2018-05-27T07:14:43.729Z,14.40
2018-05-27T07:17:11.320Z,14.37
2018-05-27T07:19:38.858Z,15.17
2018-05-27T07:22:06.434Z,13.00
2018-05-27T07:24:34.753Z,13.80
2018-05-27T07:27:02.327Z,14.90
2018-05-27T07:29:29.883Z,14.17
2018-05-27T07:31:57.459Z,14.67
2018-05-27T07:34:25.013Z,12.47
2018-05-27T07:36:52.580Z,13.20
2018-05-27T07:39:20.129Z,13.80
2018-05-27T07:41:47.696Z,12.23
2018-05-27T07:44:15.246Z,13.90
2018-05-27T07:46:42.821Z,12.20
2018-05-27T07:49:10.454Z,13.30
2018-05-27T07:51:38.015Z,12.67
2018-05-27T07:54:05.575Z,11.40
2018-05-27T07:56:33.146Z,11.67
2018-05-27T07:59:00.691Z,10.37
2018-05-27T08:01:28.250Z,8.73
2018-05-27T08:03:55.782Z,8.70
2018-05-27T08:06:24.112Z,9.60
2018-05-27T08:08:51.659Z,8.23
2018-05-27T08:11:19.231Z,8.53
2018-05-27T08:13:46.775Z,8.90
2018-05-27T08:16:14.327Z,7.77
2018-05-27T08:18:41.884Z,7.73
2018-05-27T08:21:09.434Z,7.33
2018-05-27T08:23:37.764Z,7.07
2018-05-27T08:26:05.309Z,7.20
2018-05-27T08:28:32.882Z,7.97
2018-05-27T08:31:00.428Z,8.30
2018-05-27T08:33:28.770Z,7.63
2018-05-27T08:35:57.408Z,8.40
2018-05-27T08:38:24.963Z,7.17
2018-05-27T08:40:52.499Z,8.10
2018-05-27T08:43:20.063Z,8.20
2018-05-27T08:45:47.602Z,7.37
2018-05-27T08:48:15.167Z,7.73
2018-05-27T08:50:42.698Z,7.00
2018-05-27T08:53:10.257Z,7.70
2018-05-27T08:55:37.785Z,7.00
2018-05-27T08:58:05.340Z,5.90
2018-05-27T09:00:32.878Z,7.60
2018-05-27T09:03:00.432Z,8.07
2018-05-27T09:05:27.963Z,6.67
2018-05-27T09:07:56.292Z,7.27
2018-05-27T09:10:23.832Z,7.93
2018-05-27T09:12:51.391Z,6.70
2018-05-27T09:15:18.939Z,6.60
2018-05-27T09:17:46.507Z,6.37
2018-05-27T09:20:14.050Z,6.67
2018-05-27T09:22:42.383Z,7.30
2018-05-27T09:25:09.913Z,5.90
2018-05-27T09:27:37.468Z,5.90
2018-05-27T09:30:05.015Z,5.90
2018-05-27T09:32:32.575Z,6.00
2018-05-27T09:35:00.878Z,5.83
2018-05-27T09:37:28.444Z,6.17
2018-05-27T09:39:56.878Z,6.97
2018-05-27T09:42:25.205Z,6.40
2018-05-27T09:44:52.757Z,4.97
2018-05-27T09:47:20.318Z,5.00
2018-05-27T09:49:47.850Z,5.10
2018-05-27T09:52:16.174Z,4.93
2018-05-27T09:54:43.718Z,5.10
2018-05-27T09:57:11.279Z,4.37
2018-05-27T09:59:38.825Z,4.60
2018-05-27T10:02:06.385Z,3.90
2018-05-27T10:04:33.917Z,5.30
2018-05-27T10:07:02.221Z,5.60
2018-05-27T10:09:29.793Z,4.83
2018-05-27T10:11:57.327Z,5.37
2018-05-27T10:14:25.646Z,4.87
2018-05-27T10:16:53.182Z,4.30
2018-05-27T10:19:20.742Z,6.03
2018-05-27T10:21:48.287Z,5.40
2018-05-27T10:24:15.850Z,6.10
2018-05-27T10:26:43.391Z,5.90
2018-05-27T10:29:12.700Z,5.20
2018-05-27T10:31:41.002Z,5.10
2018-05-27T10:34:08.555Z,5.63
2018-05-27T10:36:36.097Z,5.10
2018-05-27T10:39:05.144Z,4.63
2018-05-27T10:41:32.680Z,4.93
2018-05-27T10:44:00.244Z,5.20
2018-05-27T10:46:27.782Z,4.93
2018-05-27T10:48:55.335Z,4.83
2018-05-27T10:51:22.870Z,4.80
2018-05-27T10:53:50.439Z,4.80
2018-05-27T10:56:18.732Z,5.50
2018-05-27T10:58:47.757Z,5.10
2018-05-27T11:01:15.305Z,5.10
2018-05-27T11:03:42.879Z,5.50
2018-05-27T11:06:10.414Z,5.20
2018-05-27T11:08:37.977Z,5.90
2018-05-27T11:11:05.515Z,6.00
2018-05-27T11:13:33.810Z,4.73
2018-05-27T11:16:01.365Z,4.63
2018-05-27T11:18:29.659Z,5.20
2018-05-27T11:20:57.214Z,4.83
2018-05-27T11:23:24.754Z,4.40
2018-05-27T11:25:53.072Z,5.00
2018-05-27T11:28:20.610Z,4.20
2018-05-27T11:30:48.175Z,5.47
2018-05-27T11:33:16.477Z,4.50
2018-05-27T11:35:44.029Z,4.43
2018-05-27T11:38:11.566Z,4.73
2018-05-27T11:40:39.120Z,5.27
2018-05-27T11:43:07.421Z,5.57
2018-05-27T11:45:34.991Z,4.70
2018-05-27T11:48:02.540Z,4.50
2018-05-27T11:50:30.158Z,4.57
2018-05-27T11:52:57.696Z,4.70
2018-05-27T11:55:25.253Z,4.00
2018-05-27T11:57:52.792Z,4.83
2018-05-27T12:00:20.328Z,4.20
2018-05-27T12:02:47.882Z,4.17
2018-05-27T12:05:15.430Z,5.10
2018-05-27T12:07:43.763Z,4.13
2018-05-27T12:10:11.305Z,4.00
2018-05-27T12:12:38.861Z,3.40
2018-05-27T12:15:06.395Z,3.93
2018-05-27T12:17:34.805Z,3.50
2018-05-27T12:20:02.352Z,3.73
2018-05-27T12:22:29.914Z,4.03
2018-05-27T12:24:57.452Z,4.10
2018-05-27T12:27:25.778Z,3.50
2018-05-27T12:29:53.381Z,3.03
2018-05-27T12:32:20.899Z,3.60
2018-05-27T12:34:49.686Z,3.53
2018-05-27T12:37:17.243Z,3.70
2018-05-27T12:39:44.784Z,3.73
2018-05-27T12:42:12.342Z,2.70
2018-05-27T12:44:39.878Z,3.50
2018-05-27T12:47:08.198Z,3.10
2018-05-27T12:49:35.736Z,3.27
2018-05-27T12:52:03.300Z,3.73
2018-05-27T12:54:30.838Z,3.30
2018-05-27T12:56:59.281Z,3.00
2018-05-27T12:59:27.584Z,2.97
2018-05-27T13:01:55.913Z,3.20
2018-05-27T13:04:23.450Z,3.00
2018-05-27T13:06:51.001Z,2.93
2018-05-27T13:09:19.289Z,3.10
2018-05-27T13:11:48.100Z,2.80
2018-05-27T13:14:15.645Z,3.23
2018-05-27T13:16:43.282Z,2.97
2018-05-27T13:19:10.765Z,2.63
2018-05-27T13:21:38.323Z,3.23
2018-05-27T13:24:05.860Z,4.00
2018-05-27T13:26:34.186Z,4.50
2018-05-27T13:29:01.727Z,5.23
2018-05-27T13:31:29.297Z,4.80
2018-05-27T13:33:56.835Z,5.00
2018-05-27T13:36:24.386Z,6.73
2018-05-27T13:38:52.682Z,4.57
2018-05-27T13:41:21.115Z,4.87
2018-05-27T13:43:48.651Z,4.37
2018-05-27T13:46:16.206Z,4.00
2018-05-27T13:48:43.739Z,4.50
2018-05-27T13:51:11.293Z,3.53
2018-05-27T13:53:38.834Z,3.70
2018-05-27T13:56:07.133Z,3.90
2018-05-27T13:58:34.699Z,3.90
2018-05-27T14:01:02.232Z,3.30
2018-05-27T14:03:30.546Z,3.07
2018-05-27T14:05:58.093Z,3.80
2018-05-27T14:08:25.666Z,3.63
2018-05-27T14:10:53.203Z,3.90
2018-05-27T14:13:21.528Z,3.67
2018-05-27T14:15:49.075Z,3.13
2018-05-27T14:18:16.636Z,3.00
2018-05-27T14:20:44.172Z,3.50
2018-05-27T14:23:11.739Z,2.97
2018-05-27T14:25:39.267Z,3.00
2018-05-27T14:28:07.589Z,2.73
2018-05-27T14:30:35.130Z,3.10
2018-05-27T14:33:02.694Z,3.20
2018-05-27T14:35:30.237Z,2.90
2018-05-27T14:37:57.794Z,4.67
2018-05-27T14:40:26.105Z,4.37
2018-05-27T14:42:53.675Z,3.80
2018-05-27T14:45:23.283Z,6.10
2018-05-27T14:47:50.844Z,3.77
2018-05-27T14:50:18.384Z,25.50
2018-05-27T14:52:45.953Z,21.73
2018-05-27T14:55:13.499Z,5.70
2018-05-27T14:57:41.056Z,3.60
2018-05-27T15:00:08.603Z,5.30
2018-05-27T15:02:36.924Z,3.83
2018-05-27T15:05:06.439Z,3.10
2018-05-27T15:07:33.994Z,6.40
2018-05-27T15:10:01.523Z,3.00
2018-05-27T15:12:29.078Z,2.50
2018-05-27T15:14:56.622Z,3.70
2018-05-27T15:17:24.949Z,3.53
2018-05-27T15:19:52.488Z,3.20
2018-05-27T15:22:20.047Z,3.70
2018-05-27T15:24:47.587Z,3.00
2018-05-27T15:27:15.156Z,2.80
2018-05-27T15:29:42.687Z,2.70
2018-05-27T15:32:11.046Z,3.50
2018-05-27T15:34:38.587Z,4.00
2018-05-27T15:37:06.141Z,3.00
2018-05-27T15:39:33.679Z,2.90
2018-05-27T15:42:01.254Z,3.57
2018-05-27T15:44:28.802Z,3.10
2018-05-27T15:46:56.375Z,3.20
2018-05-27T15:49:23.915Z,3.30
2018-05-27T15:51:51.473Z,2.73
2018-05-27T15:54:19.583Z,2.80
2018-05-27T15:56:47.124Z,2.70
2018-05-27T15:59:15.343Z,2.90
2018-05-27T16:01:43.665Z,2.53
2018-05-27T16:04:11.230Z,2.53
2018-05-27T16:06:38.771Z,2.90
2018-05-27T16:09:07.103Z,3.10
2018-05-27T16:11:34.645Z,2.80
2018-05-27T16:14:02.205Z,3.00
2018-05-27T16:16:29.741Z,2.87
2018-05-27T16:18:57.294Z,2.57
2018-05-27T16:21:24.826Z,2.53
2018-05-27T16:23:52.379Z,2.70
2018-05-27T16:26:19.911Z,2.70
2018-05-27T16:28:47.459Z,2.50
2018-05-27T16:31:14.994Z,2.27
2018-05-27T16:33:42.546Z,2.80
2018-05-27T16:36:10.849Z,2.43
2018-05-27T16:38:38.409Z,2.73
2018-05-27T16:41:05.941Z,2.40
2018-05-27T16:43:34.266Z,2.20
2018-05-27T16:46:01.807Z,2.63
2018-05-27T16:48:29.371Z,2.20
2018-05-27T16:50:56.905Z,3.40
2018-05-27T16:53:25.228Z,2.93
2018-05-27T16:55:52.880Z,2.80
2018-05-27T16:58:20.455Z,2.90
2018-05-27T17:00:47.987Z,2.83
2018-05-27T17:03:15.548Z,2.67
2018-05-27T17:05:43.095Z,2.60
2018-05-27T17:08:10.664Z,2.67
2018-05-27T17:10:38.202Z,3.23
2018-05-27T17:13:06.525Z,2.60
2018-05-27T17:15:34.065Z,3.13
2018-05-27T17:18:01.621Z,2.77
2018-05-27T17:20:29.158Z,2.93
2018-05-27T17:22:57.486Z,3.90
2018-05-27T17:25:25.013Z,4.80
2018-05-27T17:27:52.575Z,3.17
2018-05-27T17:30:20.114Z,3.90
2018-05-27T17:32:48.974Z,3.60
2018-05-27T17:35:16.502Z,4.63
2018-05-27T17:37:44.068Z,3.60
2018-05-27T17:40:11.609Z,3.80
2018-05-27T17:42:39.171Z,3.63
2018-05-27T17:45:06.712Z,3.30
2018-05-27T17:47:35.039Z,3.40
2018-05-27T17:50:03.194Z,4.57
2018-05-27T17:52:30.742Z,3.20
2018-05-27T17:54:58.276Z,3.60
2018-05-27T17:57:26.617Z,4.03
2018-05-27T17:59:54.154Z,3.90
2018-05-27T18:02:21.691Z,3.80
2018-05-27T18:04:49.252Z,3.53
2018-05-27T18:07:16.782Z,3.63
2018-05-27T18:09:45.120Z,3.47
2018-05-27T18:12:13.195Z,3.20
2018-05-27T18:14:40.763Z,3.03
2018-05-27T18:17:08.302Z,3.40
2018-05-27T18:19:35.871Z,3.33
2018-05-27T18:22:03.411Z,3.87
2018-05-27T18:24:30.970Z,3.10
2018-05-27T18:26:58.514Z,5.07
2018-05-27T18:29:26.838Z,3.23
2018-05-27T18:31:54.974Z,3.77
2018-05-27T18:34:22.556Z,3.60
2018-05-27T18:36:50.095Z,3.20
2018-05-27T18:39:17.674Z,3.23
2018-05-27T18:41:45.213Z,3.47
2018-05-27T18:44:12.767Z,2.93
2018-05-27T18:46:42.218Z,3.10
2018-05-27T18:49:09.774Z,3.03
2018-05-27T18:51:37.332Z,3.50
2018-05-27T18:54:04.896Z,3.23
2018-05-27T18:56:32.447Z,3.40
2018-05-27T18:59:00.051Z,3.50
2018-05-27T19:01:27.561Z,3.80
2018-05-27T19:03:55.116Z,3.90
2018-05-27T19:06:22.645Z,4.23
2018-05-27T19:08:50.976Z,4.00
2018-05-27T19:11:18.529Z,4.80
2018-05-27T19:13:46.083Z,4.17
2018-05-27T19:16:13.616Z,4.23
2018-05-27T19:18:41.200Z,3.90
2018-05-27T19:21:09.594Z,3.97
2018-05-27T19:23:37.162Z,4.40
2018-05-27T19:26:04.719Z,4.03
2018-05-27T19:28:32.290Z,4.63
2018-05-27T19:30:59.832Z,4.20
2018-05-27T19:33:27.385Z,4.07
2018-05-27T19:35:54.931Z,4.10
2018-05-27T19:38:22.496Z,4.47
2018-05-27T19:40:50.030Z,4.77
2018-05-27T19:43:18.370Z,5.33
2018-05-27T19:45:45.918Z,4.83
2018-05-27T19:48:13.478Z,5.67
2018-05-27T19:50:41.022Z,8.80
2018-05-27T19:53:08.593Z,23.13
2018-05-27T19:55:36.131Z,19.30
2018-05-27T19:58:03.673Z,10.73
2018-05-27T20:00:31.998Z,7.53
2018-05-27T20:02:59.538Z,6.80
2018-05-27T20:05:27.116Z,6.27
2018-05-27T20:07:54.643Z,5.07
2018-05-27T20:10:22.198Z,5.03
2018-05-27T20:12:50.499Z,5.07
2018-05-27T20:15:18.060Z,8.87
2018-05-27T20:17:45.595Z,6.80
2018-05-27T20:20:13.172Z,11.87
2018-05-27T20:22:40.717Z,8.40
2018-05-27T20:25:08.281Z,6.20
2018-05-27T20:27:35.822Z,6.90
2018-05-27T20:30:04.149Z,8.97
2018-05-27T20:32:31.694Z,7.10
2018-05-27T20:34:59.266Z,7.10
2018-05-27T20:37:26.918Z,7.20
2018-05-27T20:39:54.482Z,7.87
2018-05-27T20:42:22.027Z,8.10
2018-05-27T20:44:49.596Z,8.73
2018-05-27T20:47:17.137Z,8.30
2018-05-27T20:49:44.697Z,7.73
2018-05-27T20:52:12.238Z,6.97
2018-05-27T20:54:40.568Z,7.13
2018-05-27T20:57:08.104Z,7.27
2018-05-27T20:59:35.660Z,7.33
2018-05-27T21:02:03.197Z,7.10
2018-05-27T21:04:31.514Z,6.50
2018-05-27T21:06:59.048Z,6.00
2018-05-27T21:09:27.371Z,7.77
2018-05-27T21:11:54.915Z,10.40
2018-05-27T21:14:22.477Z,10.10
2018-05-27T21:16:50.779Z,9.57
2018-05-27T21:19:18.347Z,9.97
2018-05-27T21:21:45.891Z,8.87
2018-05-27T21:24:13.445Z,8.63
2018-05-27T21:26:40.996Z,7.40
2018-05-27T21:29:08.560Z,6.97
2018-05-27T21:31:36.094Z,7.40
2018-05-27T21:34:03.657Z,7.93
2018-05-27T21:36:31.206Z,8.60
2018-05-27T21:38:58.773Z,8.47
2018-05-27T21:41:26.315Z,8.20
2018-05-27T21:43:54.636Z,7.50
2018-05-27T21:46:22.169Z,7.10
2018-05-27T21:48:49.730Z,7.53
2018-05-27T21:51:17.258Z,8.40
2018-05-27T21:53:44.834Z,11.77
2018-05-27T21:56:13.156Z,10.47
2018-05-27T21:58:40.738Z,11.13
2018-05-27T22:01:08.313Z,8.53
2018-05-27T22:03:37.671Z,9.23
2018-05-27T22:06:06.342Z,10.80
2018-05-27T22:08:33.895Z,9.27
2018-05-27T22:11:01.472Z,8.10
2018-05-27T22:13:29.005Z,8.43
2018-05-27T22:15:57.335Z,8.70
2018-05-27T22:18:24.871Z,8.40
2018-05-27T22:20:52.431Z,8.27
2018-05-27T22:23:19.975Z,7.40
2018-05-27T22:25:47.530Z,6.97
2018-05-27T22:28:15.073Z,7.10
2018-05-27T22:30:43.399Z,7.63
2018-05-27T22:33:10.937Z,7.20
2018-05-27T22:35:38.489Z,7.23
2018-05-27T22:38:06.033Z,7.47
2018-05-27T22:40:34.454Z,7.50
2018-05-27T22:43:01.983Z,7.60
2018-05-27T22:45:30.313Z,7.37
2018-05-27T22:47:57.852Z,7.40
2018-05-27T22:50:25.405Z,7.37
2018-05-27T22:52:52.947Z,6.93
2018-05-27T22:55:21.281Z,6.93
2018-05-27T22:57:48.827Z,7.23
2018-05-27T23:00:16.383Z,7.50
2018-05-27T23:02:43.924Z,8.67
2018-05-27T23:05:11.496Z,15.47
2018-05-27T23:07:39.038Z,38.00
2018-05-27T23:10:06.593Z,8.50
2018-05-27T23:12:34.118Z,7.60
2018-05-27T23:15:01.685Z,9.53
2018-05-27T23:17:30.003Z,10.40
2018-05-27T23:19:57.566Z,9.87
2018-05-27T23:22:25.107Z,8.47
2018-05-27T23:24:52.677Z,7.50
2018-05-27T23:27:20.210Z,8.00
2018-05-27T23:29:48.529Z,8.00
2018-05-27T23:32:16.075Z,7.87
2018-05-27T23:34:43.629Z,7.20
2018-05-27T23:37:11.157Z,7.60
2018-05-27T23:39:38.717Z,7.33
2018-05-27T23:42:06.265Z,7.77
2018-05-27T23:44:33.823Z,7.43
2018-05-27T23:47:01.363Z,7.13
2018-05-27T23:49:28.923Z,7.53
2018-05-27T23:51:56.467Z,6.57
2018-05-27T23:54:24.024Z,6.70
2018-05-27T23:56:51.568Z,6.63
2018-05-27T23:59:19.100Z,6.37
